Time;durP1;ratioP1;P1;durP2;ratioP2;P2;SDS_P1;SDS_P2;PMS_P1;PMS_P2;Temp;Humidity;BMP_temperature;BMP_pressure;BME280_temperature;BME280_humidity;BME280_pressure;Samples;Min_cycle;Max_cycle;Signal;HPM_P1;HPM_P2
2022/08/19 00:01:29;;;;;;;2.55;2.35;;;18.60;99.90;;;;;;5043833;28;20253;-76
2022/08/19 00:03:56;;;;;;;2.42;2.10;;;18.60;99.90;;;;;;5041868;28;20218;-74
2022/08/19 00:06:24;;;;;;;2.22;2.08;;;18.60;99.90;;;;;;5041999;28;20194;-74
2022/08/19 00:08:52;;;;;;;1.90;1.77;;;18.60;99.90;;;;;;5040890;28;20195;-74
2022/08/19 00:11:20;;;;;;;2.92;1.90;;;18.70;99.90;;;;;;5040580;28;20893;-74
2022/08/19 00:13:48;;;;;;;2.30;2.13;;;18.70;99.90;;;;;;5038224;28;20287;-73
2022/08/19 00:16:15;;;;;;;2.08;1.88;;;18.70;99.90;;;;;;5037979;28;20199;-72
2022/08/19 00:18:42;;;;;;;2.28;2.05;;;18.70;99.90;;;;;;5042887;28;20199;-72
2022/08/19 00:21:09;;;;;;;2.50;2.00;;;18.60;99.90;;;;;;5041283;28;20320;-73
2022/08/19 00:23:37;;;;;;;2.05;1.85;;;18.70;99.90;;;;;;5042640;28;20773;-74
2022/08/19 00:26:06;;;;;;;2.03;1.92;;;18.70;99.90;;;;;;5041708;28;20191;-73
2022/08/19 00:28:35;;;;;;;2.78;2.10;;;18.70;99.90;;;;;;5034382;28;20904;-74
2022/08/19 00:31:02;;;;;;;2.13;1.92;;;18.70;99.90;;;;;;5039782;28;20688;-71
2022/08/19 00:33:32;;;;;;;2.40;2.20;;;18.60;99.90;;;;;;5042222;28;20661;-73
2022/08/19 00:35:59;;;;;;;2.53;2.33;;;18.60;99.90;;;;;;5037755;28;20207;-73
2022/08/19 00:38:28;;;;;;;2.63;2.38;;;18.50;99.90;;;;;;5045079;28;20352;-73
2022/08/19 00:40:55;;;;;;;23.48;3.75;;;18.40;99.90;;;;;;5046105;28;20219;-74
2022/08/19 00:43:26;;;;;;;4.55;2.70;;;18.30;99.90;;;;;;5042529;28;20210;-74
2022/08/19 00:45:53;;;;;;;4.88;3.30;;;18.30;99.90;;;;;;5046851;28;20207;-74
2022/08/19 00:48:22;;;;;;;2.95;2.75;;;18.20;99.90;;;;;;5045103;28;20273;-73
2022/08/19 00:50:52;;;;;;;3.15;2.55;;;18.20;99.90;;;;;;5045113;28;20210;-73
2022/08/19 00:53:23;;;;;;;2.90;2.60;;;18.30;99.90;;;;;;5047792;28;20221;-73
2022/08/19 00:55:54;;;;;;;3.05;2.75;;;18.30;99.90;;;;;;5040295;28;20582;-74
2022/08/19 00:58:25;;;;;;;2.95;2.50;;;18.40;99.90;;;;;;5042812;28;20230;-74
2022/08/19 01:00:52;;;;;;;3.40;3.10;;;18.40;99.90;;;;;;5043089;28;20310;-73
2022/08/19 01:03:21;;;;;;;3.10;2.78;;;18.40;99.90;;;;;;5039365;28;20218;-73
2022/08/19 01:05:51;;;;;;;3.50;3.03;;;18.30;99.90;;;;;;5043587;28;20195;-73
2022/08/19 01:08:20;;;;;;;2.72;2.53;;;18.30;99.90;;;;;;5040815;28;20233;-73
2022/08/19 01:10:50;;;;;;;2.47;2.38;;;18.30;99.90;;;;;;5045335;28;20199;-73
2022/08/19 01:13:20;;;;;;;5.63;3.25;;;18.30;99.90;;;;;;5046822;28;20301;-73
2022/08/19 01:15:52;;;;;;;2.30;2.10;;;18.20;99.90;;;;;;5047966;28;20198;-74
2022/08/19 01:18:21;;;;;;;3.80;3.45;;;18.20;99.90;;;;;;5043518;28;20218;-73
2022/08/19 01:20:49;;;;;;;3.00;2.70;;;18.10;99.90;;;;;;5043020;28;20203;-71
2022/08/19 01:23:17;;;;;;;2.80;2.40;;;18.00;99.90;;;;;;5045528;28;20355;-73
2022/08/19 01:25:49;;;;;;;2.15;2.05;;;18.00;99.90;;;;;;5043175;28;20196;-73
2022/08/19 01:28:19;;;;;;;2.17;2.08;;;17.90;99.90;;;;;;5043343;28;20220;-74
2022/08/19 01:30:47;;;;;;;2.00;1.90;;;17.90;99.90;;;;;;5039538;28;20195;-75
2022/08/19 01:33:15;;;;;;;2.42;2.28;;;17.90;99.90;;;;;;5045456;28;20288;-72
2022/08/19 01:35:43;;;;;;;2.20;2.10;;;17.90;99.90;;;;;;5041056;28;20223;-74
2022/08/19 01:38:19;;;;;;;2.35;2.22;;;17.90;99.90;;;;;;5044690;28;20218;-74
2022/08/19 01:40:48;;;;;;;2.60;2.40;;;17.90;99.90;;;;;;5041960;28;20202;-73
2022/08/19 01:43:15;;;;;;;2.45;2.25;;;17.90;99.90;;;;;;5046789;28;20226;-73
2022/08/19 01:45:42;;;;;;;2.38;2.17;;;17.90;99.90;;;;;;5043185;28;20242;-72
2022/08/19 01:48:10;;;;;;;3.00;2.47;;;17.90;99.90;;;;;;5042371;28;20223;-74
2022/08/19 01:50:37;;;;;;;2.17;1.98;;;18.00;99.90;;;;;;5041477;28;20234;-73
2022/08/19 01:53:08;;;;;;;2.22;2.10;;;18.00;99.90;;;;;;5041418;28;20787;-72
2022/08/19 01:55:37;;;;;;;2.00;1.90;;;18.00;99.90;;;;;;5047661;28;20224;-74
2022/08/19 01:58:06;;;;;;;2.38;2.17;;;18.10;99.90;;;;;;5043435;28;20653;-72
2022/08/19 02:00:34;;;;;;;5.32;2.25;;;18.10;99.90;;;;;;5041079;28;20195;-73
2022/08/19 02:03:01;;;;;;;2.75;2.55;;;18.10;99.90;;;;;;5044190;28;20230;-73
2022/08/19 02:05:29;;;;;;;2.38;2.17;;;18.10;99.90;;;;;;5051134;28;20218;-73
2022/08/19 02:07:57;;;;;;;1.92;1.83;;;18.20;99.90;;;;;;5043851;28;20223;-71
2022/08/19 02:10:24;;;;;;;2.10;1.90;;;18.20;99.90;;;;;;5042883;28;20253;-72
2022/08/19 02:12:52;;;;;;;1.70;1.60;;;18.20;99.90;;;;;;5045654;28;20949;-73
2022/08/19 02:15:21;;;;;;;3.20;1.80;;;18.20;99.90;;;;;;5045704;28;20214;-72
2022/08/19 02:17:49;;;;;;;2.88;2.10;;;18.20;99.90;;;;;;5044280;28;20349;-73
2022/08/19 02:20:16;;;;;;;2.40;1.80;;;18.20;99.90;;;;;;5044158;28;20191;-74
2022/08/19 02:22:44;;;;;;;2.58;2.10;;;18.10;99.90;;;;;;5040743;28;20444;-74
2022/08/19 02:25:12;;;;;;;3.17;2.40;;;18.00;99.90;;;;;;5042230;28;20254;-74
2022/08/19 02:27:40;;;;;;;2.40;2.20;;;18.00;99.90;;;;;;5042271;28;20215;-73
2022/08/19 02:30:09;;;;;;;2.33;2.13;;;17.90;99.90;;;;;;5042506;28;20191;-74
2022/08/19 02:32:38;;;;;;;2.00;1.80;;;17.90;99.90;;;;;;5043270;28;20414;-73
2022/08/19 02:35:06;;;;;;;2.00;1.90;;;17.90;99.90;;;;;;5045117;28;20700;-73
2022/08/19 02:40:17;;;;;;;2.00;1.90;;;18.00;99.90;;;;;;5045225;28;20229;-71
2022/08/19 02:42:45;;;;;;;2.55;1.92;;;18.10;99.90;;;;;;5043990;28;20272;-74
2022/08/19 02:45:13;;;;;;;2.20;2.00;;;18.10;99.90;;;;;;5042076;28;20852;-73
2022/08/19 02:47:41;;;;;;;2.28;2.08;;;18.20;99.90;;;;;;5040869;28;20276;-71
2022/08/19 02:50:09;;;;;;;2.35;1.98;;;18.20;99.90;;;;;;5041347;28;20195;-73
2022/08/19 02:52:37;;;;;;;2.28;2.10;;;18.20;99.90;;;;;;5044472;28;20704;-71
2022/08/19 02:55:05;;;;;;;2.20;2.00;;;18.20;99.90;;;;;;5042860;28;20227;-73
2022/08/19 02:57:32;;;;;;;2.00;1.90;;;18.20;99.90;;;;;;5042091;28;20226;-77
2022/08/19 03:00:01;;;;;;;3.08;1.77;;;18.20;99.90;;;;;;5041907;28;20199;-72
2022/08/19 03:02:28;;;;;;;2.92;2.15;;;18.30;99.90;;;;;;5039411;28;20971;-70
2022/08/19 03:04:57;;;;;;;3.05;2.50;;;18.20;99.90;;;;;;5041178;28;20791;-73
2022/08/19 03:07:24;;;;;;;2.40;2.20;;;18.20;99.90;;;;;;5039452;28;20219;-73
2022/08/19 03:09:51;;;;;;;2.60;2.40;;;18.10;99.90;;;;;;5038385;28;20214;-72
2022/08/19 03:12:18;;;;;;;2.30;2.10;;;18.10;99.90;;;;;;5040649;28;20688;-70
2022/08/19 03:14:46;;;;;;;2.95;2.35;;;18.00;99.90;;;;;;5045025;28;20222;-75
2022/08/19 03:17:13;;;;;;;2.22;2.00;;;18.00;99.90;;;;;;5042505;28;20219;-74
2022/08/19 03:19:40;;;;;;;3.80;2.47;;;17.90;99.90;;;;;;5039919;28;20219;-71
2022/08/19 03:22:09;;;;;;;2.90;2.28;;;17.90;99.90;;;;;;5042565;28;20217;-74
2022/08/19 03:24:36;;;;;;;2.40;2.17;;;17.90;99.90;;;;;;5039426;28;20246;-72
2022/08/19 03:27:04;;;;;;;1.98;1.88;;;17.90;99.90;;;;;;5042107;28;20633;-73
2022/08/19 03:29:32;;;;;;;2.42;1.83;;;17.90;99.90;;;;;;5037524;28;20210;-72
2022/08/19 03:32:01;;;;;;;2.97;2.22;;;18.00;99.90;;;;;;5045326;28;20600;-74
2022/08/19 03:34:31;;;;;;;1.90;1.80;;;18.00;99.90;;;;;;5045927;28;20219;-73
2022/08/19 03:37:05;;;;;;;3.33;1.90;;;18.00;99.90;;;;;;5044203;28;20219;-73
2022/08/19 03:39:33;;;;;;;2.00;1.90;;;18.00;99.90;;;;;;5042320;28;20229;-75
2022/08/19 03:42:02;;;;;;;2.25;1.90;;;18.00;99.90;;;;;;5041842;28;20276;-73
2022/08/19 03:44:32;;;;;;;1.90;1.80;;;18.00;99.90;;;;;;5043113;28;20592;-73
2022/08/19 03:47:00;;;;;;;1.95;1.85;;;18.00;99.90;;;;;;5046130;28;20246;-73
2022/08/19 03:49:29;;;;;;;1.70;1.60;;;18.10;99.90;;;;;;5038768;28;20206;-73
2022/08/19 03:51:57;;;;;;;1.90;1.80;;;18.00;99.90;;;;;;5046245;28;20248;-74
2022/08/19 03:54:25;;;;;;;1.70;1.60;;;18.00;99.90;;;;;;5038756;28;20227;-73
2022/08/19 03:56:55;;;;;;;1.70;1.60;;;18.00;99.90;;;;;;5045643;28;20226;-72
2022/08/19 03:59:26;;;;;;;3.28;1.50;;;18.10;99.90;;;;;;5042356;28;20206;-72
2022/08/19 04:01:53;;;;;;;1.70;1.60;;;18.00;99.90;;;;;;5044373;28;20234;-73
2022/08/19 04:04:21;;;;;;;1.83;1.60;;;18.10;99.90;;;;;;5045839;28;20218;-75
2022/08/19 04:06:49;;;;;;;2.13;1.55;;;18.10;99.90;;;;;;5046250;28;20226;-75
2022/08/19 04:09:16;;;;;;;1.58;1.48;;;18.30;99.90;;;;;;5053727;28;20262;-75
2022/08/19 04:11:46;;;;;;;1.60;1.50;;;18.30;99.90;;;;;;5061333;28;20222;-75
2022/08/19 04:14:17;;;;;;;2.08;1.98;;;18.40;99.90;;;;;;5065296;28;20214;-80
2022/08/19 04:16:45;;;;;;;1.52;1.42;;;18.50;99.90;;;;;;5051521;28;20218;-76
2022/08/19 04:19:14;;;;;;;1.95;1.85;;;18.50;99.90;;;;;;5058721;28;20221;-76
2022/08/19 04:21:41;;;;;;;2.92;2.28;;;18.50;99.90;;;;;;5054873;28;20214;-75
2022/08/19 04:24:10;;;;;;;4.20;1.98;;;18.30;99.90;;;;;;5055131;28;20223;-76
2022/08/19 04:26:38;;;;;;;2.00;1.90;;;18.20;99.90;;;;;;5049795;28;20960;-75
2022/08/19 04:29:09;;;;;;;4.40;2.33;;;18.20;99.90;;;;;;5060376;28;20213;-76
2022/08/19 04:31:38;;;;;;;2.35;2.15;;;18.20;99.90;;;;;;5052988;28;20230;-76
2022/08/19 04:34:08;;;;;;;3.22;2.40;;;18.10;99.90;;;;;;5048531;28;20219;-76
2022/08/19 04:36:37;;;;;;;2.45;1.70;;;18.10;99.90;;;;;;5052950;28;20222;-75
2022/08/19 04:39:07;;;;;;;2.17;2.08;;;18.10;99.90;;;;;;5050208;28;20278;-75
2022/08/19 04:44:20;;;;;;;1.67;1.58;;;18.40;99.90;;;;;;5042830;28;20749;-75
2022/08/19 04:46:51;;;;;;;1.65;1.55;;;18.50;99.90;;;;;;5043213;28;20246;-76
2022/08/19 04:49:21;;;;;;;1.35;1.35;;;18.60;99.90;;;;;;5044118;28;20191;-75
2022/08/19 04:51:49;;;;;;;1.70;1.60;;;18.60;99.90;;;;;;5036101;28;20287;-75
2022/08/19 04:54:20;;;;;;;1.50;1.40;;;18.60;99.90;;;;;;5041588;28;20214;-76
2022/08/19 04:56:49;;;;;;;1.65;1.55;;;18.70;99.90;;;;;;5037548;28;20219;-76
2022/08/19 04:59:17;;;;;;;1.60;1.50;;;18.70;99.90;;;;;;5041329;28;20245;-75
2022/08/19 05:01:49;;;;;;;1.30;1.30;;;18.70;99.90;;;;;;5039221;28;20223;-76
2022/08/19 05:04:21;;;;;;;2.05;1.60;;;18.80;99.90;;;;;;5038230;28;20219;-75
2022/08/19 05:06:50;;;;;;;2.88;1.67;;;18.80;99.90;;;;;;5039822;28;20222;-75
2022/08/19 05:09:17;;;;;;;1.17;1.08;;;18.70;99.90;;;;;;5043900;28;20215;-75
2022/08/19 05:11:45;;;;;;;1.60;1.50;;;18.70;99.90;;;;;;5041599;28;20655;-75
2022/08/19 05:14:13;;;;;;;1.30;1.30;;;18.70;99.90;;;;;;5040450;28;20310;-75
2022/08/19 05:16:41;;;;;;;1.30;1.30;;;18.80;99.90;;;;;;5040676;28;20219;-75
2022/08/19 05:24:39;;;;;;;1.70;1.38;;;18.90;99.90;;;;;;5043944;28;20244;-75
2022/08/19 05:27:06;;;;;;;1.23;1.20;;;18.80;99.90;;;;;;5042664;28;20230;-75
2022/08/19 05:29:35;;;;;;;1.60;1.38;;;18.80;99.90;;;;;;5040551;28;20935;-75
2022/08/19 05:32:04;;;;;;;2.03;1.70;;;18.70;99.90;;;;;;5044012;28;20262;-76
2022/08/19 05:34:32;;;;;;;1.50;1.40;;;18.60;99.90;;;;;;5042708;28;20795;-76
2022/08/19 05:37:04;;;;;;;2.20;1.25;;;18.50;99.90;;;;;;5039881;28;20241;-75
2022/08/19 05:39:34;;;;;;;1.58;1.30;;;18.50;99.90;;;;;;5043574;28;20203;-75
2022/08/19 05:42:05;;;;;;;1.77;1.60;;;18.50;99.90;;;;;;5042925;28;20218;-75
2022/08/19 05:44:35;;;;;;;1.50;1.40;;;18.80;99.90;;;;;;5043749;28;20254;-74
2022/08/19 05:47:05;;;;;;;1.58;1.48;;;19.10;99.90;;;;;;5038997;28;20297;-74
2022/08/19 05:49:34;;;;;;;1.65;1.52;;;19.40;99.90;;;;;;5040526;28;20202;-76
2022/08/19 05:52:05;;;;;;;2.15;1.40;;;19.40;99.90;;;;;;5040650;28;20211;-75
2022/08/19 05:54:33;;;;;;;2.47;1.90;;;19.50;99.90;;;;;;5043523;28;20229;-75
2022/08/19 05:57:02;;;;;;;2.75;1.70;;;19.50;99.90;;;;;;5040730;28;20215;-75
2022/08/19 05:59:29;;;;;;;2.92;1.45;;;19.70;99.90;;;;;;5042236;28;20206;-75
2022/08/19 06:01:56;;;;;;;2.05;1.80;;;20.10;99.90;;;;;;5041024;28;20222;-75
2022/08/19 06:04:25;;;;;;;3.55;2.13;;;20.40;99.90;;;;;;5040830;28;20219;-76
2022/08/19 06:06:54;;;;;;;2.70;1.92;;;20.50;99.90;;;;;;5035809;28;20219;-75
2022/08/19 06:09:23;;;;;;;2.97;2.28;;;20.20;99.90;;;;;;5042582;28;20214;-75
2022/08/19 06:11:54;;;;;;;2.33;2.15;;;20.00;99.90;;;;;;5041629;28;20222;-75
2022/08/19 06:14:23;;;;;;;2.05;1.95;;;20.00;99.90;;;;;;5040936;28;20227;-74
2022/08/19 06:16:51;;;;;;;1.90;1.80;;;20.20;99.90;;;;;;5043584;28;20211;-75
2022/08/19 06:19:21;;;;;;;1.85;1.75;;;20.40;99.90;;;;;;5041989;28;20680;-75
2022/08/19 06:21:50;;;;;;;2.47;2.28;;;20.80;99.90;;;;;;5041506;28;20218;-75
2022/08/19 06:24:19;;;;;;;2.30;2.20;;;21.10;99.90;;;;;;5039782;28;20467;-75
2022/08/19 06:26:50;;;;;;;2.28;2.10;;;21.20;99.90;;;;;;5042479;28;20223;-76
2022/08/19 06:29:18;;;;;;;2.05;1.83;;;21.60;99.90;;;;;;5040789;28;20605;-75
2022/08/19 06:31:49;;;;;;;1.98;1.88;;;21.40;99.90;;;;;;5039877;28;20250;-75
2022/08/19 06:34:17;;;;;;;2.38;2.17;;;21.10;99.90;;;;;;5039655;28;20324;-75
2022/08/19 06:36:47;;;;;;;2.10;1.90;;;20.80;99.90;;;;;;5041471;28;20249;-75
2022/08/19 06:39:18;;;;;;;2.10;2.00;;;20.70;99.90;;;;;;5042637;28;20233;-76
2022/08/19 06:41:49;;;;;;;2.03;1.90;;;20.70;99.90;;;;;;5042803;28;20226;-75
2022/08/19 06:44:17;;;;;;;2.00;1.90;;;20.80;99.90;;;;;;5041627;28;20227;-76
2022/08/19 06:46:45;;;;;;;2.08;1.88;;;20.80;99.90;;;;;;5042381;28;20230;-75
2022/08/19 06:49:13;;;;;;;1.90;1.80;;;20.80;99.90;;;;;;5040389;28;20290;-75
2022/08/19 06:51:41;;;;;;;2.30;1.90;;;20.70;99.90;;;;;;5040271;28;20289;-75
2022/08/19 06:54:09;;;;;;;2.05;1.80;;;20.80;99.90;;;;;;5037697;28;21066;-75
2022/08/19 06:56:37;;;;;;;3.33;2.35;;;20.80;99.90;;;;;;5038485;28;20222;-76
2022/08/19 06:59:08;;;;;;;2.00;1.80;;;20.90;99.90;;;;;;5037856;28;20199;-75
2022/08/19 07:01:38;;;;;;;2.67;1.90;;;20.90;99.90;;;;;;5041672;28;20250;-76
2022/08/19 07:04:06;;;;;;;1.75;1.65;;;21.00;99.90;;;;;;5042606;28;20265;-75
2022/08/19 07:06:34;;;;;;;1.67;1.58;;;21.10;99.90;;;;;;5041173;28;20234;-77
2022/08/19 07:09:01;;;;;;;1.90;1.80;;;21.30;99.90;;;;;;5040775;28;20282;-75
2022/08/19 07:11:28;;;;;;;2.17;1.90;;;21.50;99.90;;;;;;5041582;28;20301;-75
2022/08/19 07:13:55;;;;;;;2.10;1.70;;;21.60;99.90;;;;;;5043021;28;20214;-75
2022/08/19 07:16:24;;;;;;;1.95;1.77;;;21.60;99.90;;;;;;5041101;28;20232;-75
2022/08/19 07:18:52;;;;;;;2.50;2.20;;;21.50;99.90;;;;;;5044275;28;20199;-75
2022/08/19 07:21:22;;;;;;;1.98;1.88;;;21.40;99.90;;;;;;5042496;28;20198;-75
2022/08/19 07:23:50;;;;;;;2.78;2.00;;;21.10;99.90;;;;;;5039147;28;20682;-74
2022/08/19 07:26:19;;;;;;;2.28;2.00;;;20.90;99.90;;;;;;5042574;28;20206;-75
2022/08/19 07:28:47;;;;;;;2.00;1.80;;;21.00;99.90;;;;;;5043179;28;20291;-75
2022/08/19 07:31:17;;;;;;;2.50;2.10;;;21.40;99.90;;;;;;5044431;28;20196;-76
2022/08/19 07:33:48;;;;;;;2.25;1.98;;;22.30;99.90;;;;;;5042565;28;20295;-76
2022/08/19 07:36:18;;;;;;;3.97;2.10;;;23.00;99.90;;;;;;5044190;28;20195;-76
2022/08/19 07:38:49;;;;;;;2.53;2.08;;;23.20;99.90;;;;;;5041773;28;20230;-74
2022/08/19 07:41:20;;;;;;;3.13;2.45;;;23.00;99.90;;;;;;5044320;28;20206;-76
2022/08/19 07:43:47;;;;;;;2.28;2.08;;;22.60;99.90;;;;;;5043739;28;20272;-76
2022/08/19 07:46:15;;;;;;;3.03;2.00;;;22.40;99.90;;;;;;5047973;28;20199;-75
2022/08/19 07:48:46;;;;;;;2.13;1.92;;;22.20;99.90;;;;;;5047048;28;20195;-75
2022/08/19 07:51:17;;;;;;;2.35;2.15;;;22.10;99.90;;;;;;5045501;28;20233;-76
2022/08/19 07:53:45;;;;;;;2.05;1.92;;;22.10;99.90;;;;;;5040899;28;20221;-75
2022/08/19 07:56:13;;;;;;;2.10;1.90;;;22.40;99.90;;;;;;5039574;28;20281;-74
2022/08/19 07:58:43;;;;;;;4.80;2.38;;;22.80;99.90;;;;;;5040632;28;20200;-75
2022/08/19 08:01:15;;;;;;;2.28;2.17;;;23.20;99.90;;;;;;5037884;28;20194;-75
2022/08/19 08:09:21;;;;;;;2.70;1.90;;;23.40;99.90;;;;;;5040824;28;20234;-75
2022/08/19 08:11:51;;;;;;;4.15;2.20;;;23.20;99.90;;;;;;5036969;28;20234;-74
2022/08/19 08:14:22;;;;;;;2.95;2.08;;;23.00;99.90;;;;;;5040961;28;20755;-74
2022/08/19 08:16:51;;;;;;;3.28;2.13;;;22.70;99.90;;;;;;5040274;28;20639;-75
2022/08/19 08:19:20;;;;;;;5.18;2.40;;;22.60;99.90;;;;;;5041007;28;20199;-74
2022/08/19 08:21:49;;;;;;;2.30;2.10;;;22.40;99.90;;;;;;5034345;28;20219;-75
2022/08/19 08:24:17;;;;;;;2.40;2.20;;;22.30;99.90;;;;;;5043487;28;20222;-75
2022/08/19 08:26:45;;;;;;;2.10;1.90;;;22.30;99.90;;;;;;5037441;28;20218;-76
2022/08/19 08:29:12;;;;;;;2.22;2.03;;;22.30;99.90;;;;;;5038121;28;20191;-75
2022/08/19 08:31:40;;;;;;;2.13;1.95;;;22.30;99.90;;;;;;5038615;28;20287;-76
2022/08/19 08:34:07;;;;;;;2.15;2.00;;;22.30;99.90;;;;;;5039120;28;20206;-75
2022/08/19 08:36:40;;;;;;;2.15;2.05;;;22.30;99.90;;;;;;5036748;28;20737;-76
2022/08/19 08:39:09;;;;;;;2.40;2.17;;;22.30;99.90;;;;;;5037790;28;20281;-76
2022/08/19 08:41:46;;;;;;;2.28;2.08;;;22.20;99.90;;;;;;5037247;28;20696;-75
2022/08/19 08:44:19;;;;;;;2.22;2.13;;;22.20;99.90;;;;;;5034317;28;20636;-75
2022/08/19 08:46:50;;;;;;;2.38;1.70;;;22.30;99.90;;;;;;5038476;28;20619;-76
2022/08/19 08:49:27;;;;;;;2.45;2.15;;;22.40;99.90;;;;;;5035839;28;20711;-75
2022/08/19 08:52:01;;;;;;;1.90;1.80;;;22.60;99.90;;;;;;5032723;28;20229;-76
2022/08/19 08:54:35;;;;;;;2.88;2.20;;;22.70;99.90;;;;;;5036549;28;20248;-75
2022/08/19 08:57:08;;;;;;;2.25;2.05;;;22.90;99.90;;;;;;5041294;28;20238;-76
2022/08/19 08:59:42;;;;;;;2.03;1.80;;;23.00;99.90;;;;;;5039520;28;20206;-76
2022/08/19 09:02:10;;;;;;;2.40;1.83;;;23.20;99.90;;;;;;5041384;28;20218;-76
2022/08/19 09:04:38;;;;;;;3.03;2.00;;;23.50;99.90;;;;;;5040634;28;20231;-74
2022/08/19 09:07:22;;;;;;;2.33;2.13;;;23.70;99.90;;;;;;5038351;28;20223;-75
2022/08/19 09:09:53;;;;;;;3.95;2.00;;;23.80;99.90;;;;;;5041876;28;20745;-75
2022/08/19 09:12:26;;;;;;;1.88;1.77;;;24.00;99.90;;;;;;5040724;28;20593;-75
2022/08/19 09:14:59;;;;;;;1.88;1.77;;;24.20;99.90;;;;;;5041077;28;20211;-76
2022/08/19 09:17:30;;;;;;;2.80;1.90;;;24.30;99.90;;;;;;5042284;28;20203;-76
2022/08/19 09:20:04;;;;;;;4.13;2.38;;;24.30;99.90;;;;;;5034818;28;20302;-75
2022/08/19 09:22:31;;;;;;;2.38;2.15;;;24.00;99.90;;;;;;5036335;28;20206;-76
2022/08/19 09:25:00;;;;;;;2.58;1.92;;;24.00;99.90;;;;;;5040640;28;20223;-78
2022/08/19 09:27:29;;;;;;;2.10;1.90;;;24.00;99.90;;;;;;5039796;28;20833;-76
2022/08/19 09:29:56;;;;;;;1.77;1.67;;;24.10;99.90;;;;;;5042070;28;20264;-77
2022/08/19 09:32:26;;;;;;;2.28;1.80;;;24.20;99.90;;;;;;5039401;28;20199;-76
2022/08/19 09:34:54;;;;;;;1.95;1.85;;;24.20;99.90;;;;;;5039263;28;20268;-76
2022/08/19 09:37:21;;;;;;;2.60;2.13;;;24.30;99.90;;;;;;5035353;28;20195;-76
2022/08/19 09:39:48;;;;;;;3.08;1.75;;;24.20;99.90;;;;;;5036706;28;20203;-76
2022/08/19 09:42:17;;;;;;;2.38;2.00;;;24.10;99.90;;;;;;5035567;28;20779;-75
2022/08/19 09:44:44;;;;;;;1.73;1.60;;;24.00;99.90;;;;;;5037963;28;20276;-76
2022/08/19 09:47:13;;;;;;;2.13;1.95;;;24.00;99.90;;;;;;5039042;28;20196;-76
2022/08/19 09:49:42;;;;;;;1.80;1.70;;;23.90;99.90;;;;;;5039009;28;20198;-76
2022/08/19 09:52:10;;;;;;;4.10;1.80;;;23.90;99.90;;;;;;5037460;28;20199;-75
2022/08/19 09:54:38;;;;;;;3.65;1.70;;;23.90;99.90;;;;;;5036035;28;20238;-75
2022/08/19 09:57:08;;;;;;;2.08;1.88;;;23.90;99.90;;;;;;5033034;28;20759;-77
2022/08/19 09:59:37;;;;;;;2.35;1.60;;;23.80;99.90;;;;;;5038169;28;20246;-78
2022/08/19 10:02:04;;;;;;;1.40;1.30;;;23.70;99.90;;;;;;5038865;28;20828;-76
2022/08/19 10:07:12;;;;;;;2.65;1.88;;;23.60;99.90;;;;;;5040332;28;20191;-75
2022/08/19 10:09:40;;;;;;;2.63;1.70;;;23.50;99.90;;;;;;5035198;28;20226;-76
2022/08/19 10:12:08;;;;;;;1.73;1.63;;;23.50;99.90;;;;;;5039766;28;20199;-77
2022/08/19 10:14:38;;;;;;;1.92;1.73;;;23.50;99.90;;;;;;5040198;28;20226;-76
2022/08/19 10:17:05;;;;;;;2.05;1.90;;;23.60;99.90;;;;;;5037438;28;20579;-76
2022/08/19 10:19:35;;;;;;;1.75;1.48;;;23.70;99.90;;;;;;5037992;28;20223;-76
2022/08/19 10:22:05;;;;;;;2.72;2.20;;;23.70;99.90;;;;;;5037976;28;20886;-75
2022/08/19 10:24:33;;;;;;;2.90;1.90;;;23.70;99.90;;;;;;5036852;28;20887;-77
2022/08/19 10:27:03;;;;;;;2.88;1.60;;;23.70;99.90;;;;;;5041451;28;20750;-76
2022/08/19 10:29:31;;;;;;;2.05;1.60;;;23.70;99.90;;;;;;5040887;28;20219;-77
2022/08/19 10:32:00;;;;;;;2.13;1.60;;;23.80;99.90;;;;;;5041578;28;20206;-77
2022/08/19 10:34:27;;;;;;;2.03;1.60;;;24.00;99.90;;;;;;5038707;28;20784;-78
2022/08/19 10:36:55;;;;;;;2.10;1.75;;;24.30;99.90;;;;;;5041226;28;20203;-77
2022/08/19 10:39:22;;;;;;;2.72;1.75;;;24.60;99.90;;;;;;5037296;28;20716;-78
2022/08/19 10:41:49;;;;;;;2.00;1.80;;;25.00;99.90;;;;;;5036736;28;20203;-76
2022/08/19 10:44:17;;;;;;;2.05;1.95;;;25.00;99.90;;;;;;5036601;28;20227;-76
2022/08/19 10:46:46;;;;;;;2.55;1.80;;;24.80;99.90;;;;;;5038361;28;20226;-75
2022/08/19 10:49:15;;;;;;;1.88;1.50;;;24.80;99.90;;;;;;5040516;28;20191;-75
2022/08/19 10:56:50;;;;;;;1.70;1.45;;;24.70;99.90;;;;;;5037869;28;20226;-75
2022/08/19 10:57:15;;;;;;;1.70;1.60;;;24.50;99.90;;;;;;5040067;28;20194;-75
2022/08/19 10:59:42;;;;;;;1.65;1.55;;;24.40;99.90;;;;;;5039616;28;20214;-75
2022/08/19 11:02:11;;;;;;;2.08;1.80;;;24.30;99.90;;;;;;5037185;28;20213;-75
2022/08/19 11:04:41;;;;;;;3.13;1.83;;;24.10;99.90;;;;;;5039734;28;20258;-76
2022/08/19 11:07:09;;;;;;;2.25;1.55;;;24.00;99.90;;;;;;5036183;28;20206;-77
2022/08/19 11:09:40;;;;;;;3.10;1.77;;;23.70;99.90;;;;;;5037713;28;20226;-77
2022/08/19 11:12:08;;;;;;;1.90;1.70;;;23.60;99.90;;;;;;5038747;28;20195;-76
2022/08/19 11:14:36;;;;;;;3.08;2.08;;;23.50;99.90;;;;;;5036531;28;20288;-76
2022/08/19 11:17:05;;;;;;;2.13;1.90;;;23.50;99.90;;;;;;5037619;28;20207;-75
2022/08/19 11:19:33;;;;;;;1.60;1.50;;;23.50;99.90;;;;;;5034413;28;20224;-75
2022/08/19 11:22:03;;;;;;;1.52;1.42;;;23.60;99.90;;;;;;5029585;28;20195;-75
2022/08/19 11:24:31;;;;;;;2.35;1.98;;;23.70;99.90;;;;;;5032626;28;20714;-75
2022/08/19 11:27:04;;;;;;;1.98;1.80;;;23.70;99.90;;;;;;5030575;28;20203;-75
2022/08/19 11:29:32;;;;;;;1.45;1.27;;;23.70;99.90;;;;;;5034182;28;20222;-76
2022/08/19 11:32:01;;;;;;;3.22;1.58;;;23.80;99.90;;;;;;5036218;28;20226;-75
2022/08/19 11:34:29;;;;;;;1.92;1.75;;;23.70;99.90;;;;;;5038084;28;20226;-74
2022/08/19 11:36:58;;;;;;;1.73;1.60;;;23.70;99.90;;;;;;5037149;28;20227;-75
2022/08/19 11:39:28;;;;;;;1.60;1.50;;;23.70;99.90;;;;;;5035198;28;20202;-76
2022/08/19 11:41:56;;;;;;;1.70;1.60;;;23.60;99.90;;;;;;5039193;28;20214;-75
2022/08/19 11:44:23;;;;;;;1.70;1.60;;;23.70;99.90;;;;;;5039221;28;20222;-75
2022/08/19 11:46:51;;;;;;;1.65;1.55;;;23.60;99.90;;;;;;5037654;28;20218;-74
2022/08/19 11:49:20;;;;;;;1.88;1.33;;;23.70;99.90;;;;;;5033312;28;20195;-75
2022/08/19 11:51:49;;;;;;;1.77;1.52;;;23.80;99.90;;;;;;5037115;28;20207;-75
2022/08/19 11:54:18;;;;;;;1.60;1.50;;;23.80;99.90;;;;;;5038480;28;20216;-75
2022/08/19 11:56:48;;;;;;;2.50;1.80;;;23.80;99.90;;;;;;5036127;28;20282;-75
2022/08/19 11:59:16;;;;;;;2.28;1.60;;;23.70;99.90;;;;;;5037726;28;20191;-77
2022/08/19 12:01:43;;;;;;;2.47;1.60;;;23.70;99.90;;;;;;5037295;28;20206;-76
2022/08/19 12:04:11;;;;;;;1.50;1.40;;;23.60;99.90;;;;;;5038772;28;20240;-76
2022/08/19 12:06:40;;;;;;;1.80;1.70;;;23.50;99.90;;;;;;5039807;28;20310;-77
2022/08/19 12:09:09;;;;;;;2.28;1.92;;;23.50;99.90;;;;;;5034324;28;20206;-76
2022/08/19 12:11:37;;;;;;;1.65;1.55;;;23.40;99.90;;;;;;5037404;28;20274;-77
2022/08/19 12:14:07;;;;;;;1.70;1.60;;;23.40;99.90;;;;;;5041195;28;20214;-76
2022/08/19 12:16:34;;;;;;;1.70;1.60;;;23.40;99.90;;;;;;5039321;28;20218;-77
2022/08/19 12:19:03;;;;;;;2.42;2.05;;;23.30;99.90;;;;;;5036296;28;20218;-75
2022/08/19 12:21:32;;;;;;;2.53;1.88;;;23.30;99.90;;;;;;5039050;28;20226;-77
2022/08/19 12:24:01;;;;;;;1.50;1.40;;;23.30;99.90;;;;;;5040298;28;20222;-77
2022/08/19 12:26:31;;;;;;;1.42;1.33;;;23.40;99.90;;;;;;5039378;28;20313;-76
2022/08/19 12:28:59;;;;;;;1.45;1.35;;;23.40;99.90;;;;;;5038687;28;20198;-77
2022/08/19 12:31:28;;;;;;;1.75;1.65;;;23.60;99.90;;;;;;5039721;28;20813;-77
2022/08/19 12:33:56;;;;;;;1.50;1.40;;;23.80;99.90;;;;;;5039906;28;20250;-76
2022/08/19 12:36:24;;;;;;;1.65;1.55;;;24.00;99.90;;;;;;5041707;28;20218;-76
2022/08/19 12:38:52;;;;;;;4.22;1.67;;;24.10;99.90;;;;;;5044875;28;20218;-77
2022/08/19 12:41:22;;;;;;;2.08;1.42;;;24.20;99.90;;;;;;5040660;28;20736;-76
2022/08/19 12:43:49;;;;;;;2.78;1.73;;;24.20;99.90;;;;;;5049570;28;20242;-76
2022/08/19 12:46:17;;;;;;;1.50;1.40;;;24.30;99.90;;;;;;5040662;28;20297;-78
2022/08/19 12:48:45;;;;;;;1.42;1.33;;;24.40;99.90;;;;;;5040667;28;20212;-77
2022/08/19 12:51:15;;;;;;;1.85;1.67;;;24.50;99.90;;;;;;5036871;28;20273;-77
2022/08/19 12:53:43;;;;;;;1.40;1.30;;;24.50;99.90;;;;;;5041863;28;20198;-75
2022/08/19 12:56:14;;;;;;;2.20;1.58;;;24.60;99.90;;;;;;5039621;28;20223;-75
2022/08/19 12:58:42;;;;;;;1.83;1.63;;;24.60;99.90;;;;;;5038130;28;20628;-77
2022/08/19 13:01:11;;;;;;;4.22;1.90;;;24.50;99.90;;;;;;5037396;28;20251;-76
2022/08/19 13:03:39;;;;;;;2.65;1.50;;;24.50;99.90;;;;;;5039174;28;20219;-77
2022/08/19 13:06:08;;;;;;;3.72;1.80;;;24.40;99.90;;;;;;5037256;28;20767;-76
2022/08/19 13:08:36;;;;;;;2.33;1.70;;;24.40;99.90;;;;;;5041371;28;20202;-75
2022/08/19 13:11:12;;;;;;;1.70;1.60;;;24.40;99.90;;;;;;5037137;28;20592;-76
2022/08/19 13:13:40;;;;;;;2.20;1.58;;;24.40;99.90;;;;;;5039844;28;20203;-76
2022/08/19 13:16:09;;;;;;;1.95;1.48;;;24.50;99.90;;;;;;5040344;28;20763;-76
2022/08/19 13:18:36;;;;;;;2.25;1.55;;;24.50;99.90;;;;;;5037132;28;20211;-76